APX777 LSZA-EGLC
Flight info
| Callsign | APX777 |
|---|---|
| Flight time | N/A |
| Altitude | 43000 |
| Route | CANNE Z651 MANEG DCT RIPUS DCT DITON DCT HOC/N0411F340 DCT LUL DCT RLP DCT ROTSI DCT KOTUN DCT NURMO DCT VESAN DCT RATUK L613 SOVAT |
| Aircraft | C25B/M-SDE2E3FGHRWXY/LB1 |
Departure
| Time | 2026-04-29 11:49 |
|---|---|
| Airport | Lugano Airport (LSZA) |
Arrival
| Time | N/A |
|---|---|
| Airport | London City Airport (EGLC) |
| Time | Latitude | Longitude | Altitude | Speed | Heading |
|---|---|---|---|---|---|
| 2026-04-29 11:44 | 46.00139 | 8.90697 | 898 ft | 0 kts | 18° |
| 2026-04-29 11:44 | 46.00140 | 8.90698 | 898 ft | 1 kts | 22° |
| 2026-04-29 11:45 | 46.00148 | 8.90727 | 898 ft | 6 kts | 76° |
| 2026-04-29 11:45 | 46.00167 | 8.90800 | 898 ft | 10 kts | 53° |
| 2026-04-29 11:45 | 46.00242 | 8.90857 | 898 ft | 14 kts | 19° |
| 2026-04-29 11:45 | 46.00348 | 8.90907 | 898 ft | 17 kts | 20° |
| 2026-04-29 11:46 | 46.00414 | 8.90940 | 898 ft | 4 kts | 18° |
| 2026-04-29 11:46 | 46.00452 | 8.90958 | 898 ft | 7 kts | 29° |
| 2026-04-29 11:46 | 46.00453 | 8.91005 | 900 ft | 5 kts | 115° |
| 2026-04-29 11:46 | 46.00457 | 8.91073 | 901 ft | 11 kts | 35° |
| 2026-04-29 11:47 | 46.00554 | 8.91122 | 902 ft | 19 kts | 17° |
| 2026-04-29 11:47 | 46.00695 | 8.91191 | 896 ft | 23 kts | 18° |
| 2026-04-29 11:47 | 46.00850 | 8.91268 | 895 ft | 24 kts | 20° |
| 2026-04-29 11:47 | 46.00971 | 8.91327 | 896 ft | 12 kts | 18° |
| 2026-04-29 11:48 | 46.01024 | 8.91333 | 897 ft | 6 kts | 350° |
| 2026-04-29 11:48 | 46.01050 | 8.91357 | 897 ft | 4 kts | 116° |
| 2026-04-29 11:48 | 46.01029 | 8.91354 | 897 ft | 5 kts | 200° |
| 2026-04-29 11:48 | 46.01021 | 8.91349 | 897 ft | 0 kts | 199° |
| 2026-04-29 11:49 | 46.00791 | 8.91237 | 896 ft | 94 kts | 199° |
| 2026-04-29 11:49 | 45.99832 | 8.90768 | 1348 ft | 181 kts | 198° |
| 2026-04-29 11:49 | 45.98472 | 8.90166 | 2451 ft | 221 kts | 197° |
| 2026-04-29 11:49 | 45.96950 | 8.89512 | 3599 ft | 232 kts | 196° |
| 2026-04-29 11:50 | 45.95431 | 8.88744 | 4969 ft | 230 kts | 201° |
| 2026-04-29 11:50 | 45.93968 | 8.87780 | 6246 ft | 235 kts | 205° |
| 2026-04-29 11:50 | 45.92418 | 8.86869 | 7259 ft | 246 kts | 199° |
| 2026-04-29 11:50 | 45.90779 | 8.86153 | 8482 ft | 246 kts | 196° |
| 2026-04-29 11:51 | 45.89115 | 8.85488 | 9633 ft | 250 kts | 197° |
| 2026-04-29 11:51 | 45.87539 | 8.84355 | 10463 ft | 265 kts | 219° |
| 2026-04-29 11:51 | 45.86457 | 8.82284 | 11574 ft | 258 kts | 250° |
| 2026-04-29 11:51 | 45.86302 | 8.79773 | 12731 ft | 257 kts | 279° |
| 2026-04-29 11:52 | 45.87035 | 8.77428 | 13690 ft | 264 kts | 308° |
| 2026-04-29 11:52 | 45.88541 | 8.75961 | 14632 ft | 268 kts | 341° |
| 2026-04-29 11:52 | 45.90409 | 8.75875 | 15554 ft | 276 kts | 11° |
| 2026-04-29 11:52 | 45.92181 | 8.76989 | 16520 ft | 280 kts | 26° |
| 2026-04-29 11:53 | 45.93911 | 8.78346 | 17418 ft | 286 kts | 25° |
| 2026-04-29 11:53 | 45.95745 | 8.79501 | 18335 ft | 289 kts | 16° |
| 2026-04-29 11:53 | 45.97693 | 8.80268 | 19143 ft | 292 kts | 9° |
| 2026-04-29 11:53 | 45.99650 | 8.80964 | 19954 ft | 296 kts | 12° |
| 2026-04-29 11:54 | 46.01664 | 8.81804 | 20790 ft | 299 kts | 13° |
| 2026-04-29 11:54 | 46.03669 | 8.82676 | 21650 ft | 302 kts | 13° |
| 2026-04-29 11:54 | 46.05695 | 8.83525 | 22528 ft | 305 kts | 12° |
| 2026-04-29 11:54 | 46.07749 | 8.84371 | 23380 ft | 309 kts | 12° |
| 2026-04-29 11:55 | 46.09829 | 8.85239 | 24143 ft | 313 kts | 12° |
| 2026-04-29 11:55 | 46.11901 | 8.86111 | 24858 ft | 316 kts | 12° |
| 2026-04-29 11:55 | 46.14025 | 8.86999 | 25592 ft | 320 kts | 11° |
| 2026-04-29 11:55 | 46.16195 | 8.87748 | 26299 ft | 319 kts | 2° |
| 2026-04-29 11:56 | 46.18404 | 8.87847 | 27006 ft | 318 kts | 352° |
| 2026-04-29 11:56 | 46.20605 | 8.87503 | 27783 ft | 318 kts | 349° |
| 2026-04-29 11:56 | 46.22792 | 8.87191 | 28775 ft | 315 kts | 349° |
| 2026-04-29 11:56 | 46.24956 | 8.86878 | 29784 ft | 312 kts | 348° |
| 2026-04-29 11:57 | 46.27113 | 8.86549 | 30691 ft | 310 kts | 348° |
| 2026-04-29 11:57 | 46.29252 | 8.86212 | 31485 ft | 307 kts | 347° |
| 2026-04-29 11:57 | 46.31380 | 8.85918 | 32301 ft | 307 kts | 350° |
| 2026-04-29 11:57 | 46.33499 | 8.85620 | 33112 ft | 304 kts | 347° |
| 2026-04-29 11:58 | 46.35590 | 8.85264 | 33985 ft | 302 kts | 348° |
| 2026-04-29 11:58 | 46.37677 | 8.84953 | 34705 ft | 301 kts | 348° |
| 2026-04-29 11:58 | 46.39765 | 8.84646 | 35381 ft | 301 kts | 348° |
| 2026-04-29 11:58 | 46.41848 | 8.84343 | 36016 ft | 300 kts | 347° |
| 2026-04-29 11:59 | 46.43921 | 8.84008 | 36684 ft | 299 kts | 347° |
| 2026-04-29 11:59 | 46.45989 | 8.83704 | 37379 ft | 299 kts | 348° |
| 2026-04-29 11:59 | 46.48082 | 8.83397 | 37835 ft | 307 kts | 347° |
| 2026-04-29 11:59 | 46.49503 | 8.83177 | 38141 ft | 311 kts | 347° |
| 2026-04-29 12:00 | 46.51666 | 8.82849 | 38705 ft | 314 kts | 347° |
| 2026-04-29 12:00 | 46.53847 | 8.82520 | 39140 ft | 317 kts | 348° |
| 2026-04-29 12:00 | 46.56059 | 8.82181 | 39529 ft | 322 kts | 348° |
| 2026-04-29 12:00 | 46.58297 | 8.81847 | 39942 ft | 326 kts | 348° |
| 2026-04-29 12:01 | 46.60566 | 8.81502 | 40334 ft | 330 kts | 348° |
| 2026-04-29 12:01 | 46.63644 | 8.81041 | 40689 ft | 334 kts | 349° |
| 2026-04-29 12:01 | 46.65174 | 8.80821 | 40974 ft | 335 kts | 349° |
| 2026-04-29 12:01 | 46.67469 | 8.80242 | 41346 ft | 334 kts | 339° |
| 2026-04-29 12:02 | 46.69581 | 8.78857 | 41701 ft | 333 kts | 325° |
| 2026-04-29 12:02 | 46.71415 | 8.76809 | 42068 ft | 334 kts | 316° |
| 2026-04-29 12:02 | 46.73016 | 8.74335 | 42453 ft | 337 kts | 307° |
| 2026-04-29 12:02 | 46.74331 | 8.71495 | 42788 ft | 340 kts | 298° |
| 2026-04-29 12:03 | 46.75477 | 8.68447 | 43053 ft | 345 kts | 298° |
| 2026-04-29 12:03 | 46.76699 | 8.65372 | 43113 ft | 356 kts | 300° |
| 2026-04-29 12:03 | 46.79347 | 8.59018 | 43113 ft | 377 kts | 300° |
| 2026-04-29 12:04 | 46.82061 | 8.52264 | 43117 ft | 395 kts | 300° |
| 2026-04-29 12:04 | 46.84891 | 8.45318 | 43128 ft | 406 kts | 300° |
| 2026-04-29 12:05 | 46.87710 | 8.38330 | 43135 ft | 391 kts | 300° |
| 2026-04-29 12:05 | 46.90452 | 8.31533 | 43132 ft | 387 kts | 300° |
| 2026-04-29 12:06 | 46.93175 | 8.24766 | 43125 ft | 385 kts | 300° |
| 2026-04-29 12:06 | 46.95879 | 8.18025 | 43127 ft | 383 kts | 300° |
| 2026-04-29 12:07 | 46.98571 | 8.11298 | 43124 ft | 382 kts | 300° |
| 2026-04-29 12:07 | 47.01254 | 8.04576 | 43123 ft | 382 kts | 300° |
| 2026-04-29 12:08 | 47.03929 | 7.97859 | 43130 ft | 381 kts | 300° |
| 2026-04-29 12:08 | 47.06598 | 7.91145 | 43128 ft | 381 kts | 300° |
| 2026-04-29 12:09 | 47.09263 | 7.84419 | 43124 ft | 381 kts | 300° |
| 2026-04-29 12:09 | 47.11921 | 7.77695 | 43118 ft | 381 kts | 300° |
| 2026-04-29 12:10 | 47.14573 | 7.70965 | 43130 ft | 381 kts | 300° |
| 2026-04-29 12:10 | 47.17223 | 7.64231 | 43133 ft | 381 kts | 300° |
| 2026-04-29 12:11 | 47.19868 | 7.57491 | 43129 ft | 380 kts | 300° |
| 2026-04-29 12:11 | 47.22489 | 7.50794 | 43135 ft | 380 kts | 299° |
| 2026-04-29 12:12 | 47.25121 | 7.44049 | 43128 ft | 380 kts | 299° |
| 2026-04-29 12:12 | 47.27751 | 7.37303 | 43125 ft | 380 kts | 299° |
| 2026-04-29 12:13 | 47.30370 | 7.30554 | 43126 ft | 379 kts | 299° |
| 2026-04-29 12:13 | 47.32983 | 7.23811 | 43129 ft | 379 kts | 299° |
| 2026-04-29 12:14 | 47.35586 | 7.17079 | 43136 ft | 377 kts | 299° |
| 2026-04-29 12:14 | 47.38176 | 7.10358 | 43135 ft | 377 kts | 299° |
| 2026-04-29 12:15 | 47.40770 | 7.03617 | 43124 ft | 378 kts | 299° |
| 2026-04-29 12:15 | 47.43365 | 6.96851 | 43123 ft | 379 kts | 299° |
| 2026-04-29 12:16 | 47.45963 | 6.90066 | 43124 ft | 380 kts | 299° |
| 2026-04-29 12:16 | 47.48559 | 6.83265 | 43127 ft | 380 kts | 299° |
| 2026-04-29 12:17 | 47.51155 | 6.76448 | 43127 ft | 380 kts | 299° |
| 2026-04-29 12:17 | 47.53747 | 6.69619 | 43127 ft | 381 kts | 299° |
| 2026-04-29 12:18 | 47.56338 | 6.62779 | 43126 ft | 381 kts | 299° |
| 2026-04-29 12:18 | 47.58926 | 6.55930 | 43109 ft | 381 kts | 298° |
| 2026-04-29 12:19 | 47.61514 | 6.49060 | 43107 ft | 381 kts | 298° |
| 2026-04-29 12:19 | 47.64097 | 6.42191 | 43113 ft | 382 kts | 299° |
| 2026-04-29 12:20 | 47.66675 | 6.35312 | 43113 ft | 381 kts | 299° |
| 2026-04-29 12:20 | 47.69081 | 6.28313 | 43107 ft | 382 kts | 290° |
| 2026-04-29 12:21 | 47.70694 | 6.20798 | 43107 ft | 382 kts | 288° |
| 2026-04-29 12:21 | 47.72297 | 6.13267 | 43107 ft | 383 kts | 288° |
| 2026-04-29 12:22 | 47.73893 | 6.05722 | 43103 ft | 383 kts | 288° |
| 2026-04-29 12:22 | 47.75489 | 5.98158 | 43102 ft | 383 kts | 288° |
| 2026-04-29 12:23 | 47.77068 | 5.90644 | 43102 ft | 384 kts | 288° |
| 2026-04-29 12:23 | 47.78654 | 5.83066 | 43096 ft | 384 kts | 287° |
| 2026-04-29 12:24 | 47.80238 | 5.75479 | 43092 ft | 384 kts | 287° |
| 2026-04-29 12:24 | 47.81814 | 5.67884 | 43093 ft | 384 kts | 287° |
| 2026-04-29 12:25 | 47.83390 | 5.60277 | 43094 ft | 385 kts | 287° |
| 2026-04-29 12:26 | 47.85742 | 5.48856 | 43090 ft | 385 kts | 287° |
| 2026-04-29 12:26 | 47.87305 | 5.41245 | 43093 ft | 384 kts | 287° |
| 2026-04-29 12:27 | 47.88856 | 5.33631 | 43092 ft | 384 kts | 287° |
| 2026-04-29 12:27 | 47.90633 | 5.26147 | 43083 ft | 384 kts | 297° |
| 2026-04-29 12:28 | 47.93778 | 5.19743 | 43082 ft | 385 kts | 311° |
| 2026-04-29 12:28 | 47.97376 | 5.13830 | 43086 ft | 385 kts | 311° |
| 2026-04-29 12:29 | 48.00965 | 5.07900 | 43082 ft | 385 kts | 311° |
| 2026-04-29 12:29 | 48.04556 | 5.01967 | 43085 ft | 385 kts | 311° |
| 2026-04-29 12:30 | 48.08151 | 4.96005 | 43089 ft | 386 kts | 311° |
| 2026-04-29 12:30 | 48.11735 | 4.90054 | 43086 ft | 385 kts | 311° |
| 2026-04-29 12:31 | 48.15314 | 4.84094 | 43093 ft | 385 kts | 311° |
| 2026-04-29 12:31 | 48.18891 | 4.78130 | 43089 ft | 385 kts | 311° |
| 2026-04-29 12:32 | 48.22462 | 4.72153 | 43091 ft | 385 kts | 311° |
| 2026-04-29 12:32 | 48.26009 | 4.66212 | 43080 ft | 386 kts | 311° |
| 2026-04-29 12:33 | 48.29588 | 4.60198 | 43083 ft | 387 kts | 311° |
| 2026-04-29 12:33 | 48.33165 | 4.54176 | 43086 ft | 387 kts | 310° |
| 2026-04-29 12:34 | 48.36740 | 4.48138 | 43091 ft | 386 kts | 311° |
| 2026-04-29 12:34 | 48.40308 | 4.42111 | 43094 ft | 386 kts | 311° |
| 2026-04-29 12:35 | 48.43859 | 4.36080 | 43092 ft | 385 kts | 311° |
| 2026-04-29 12:35 | 48.47404 | 4.30065 | 43089 ft | 383 kts | 310° |
| 2026-04-29 12:36 | 48.50928 | 4.24052 | 43087 ft | 383 kts | 310° |
| 2026-04-29 12:36 | 48.54469 | 4.18020 | 43110 ft | 384 kts | 310° |
| 2026-04-29 12:37 | 48.57996 | 4.11969 | 43118 ft | 384 kts | 311° |
| 2026-04-29 12:37 | 48.61535 | 4.05915 | 43116 ft | 385 kts | 311° |
| 2026-04-29 12:38 | 48.65076 | 3.99822 | 43114 ft | 386 kts | 311° |
| 2026-04-29 12:38 | 48.68623 | 3.93713 | 43118 ft | 386 kts | 311° |
| 2026-04-29 12:39 | 48.72228 | 3.87700 | 43118 ft | 385 kts | 317° |
| 2026-04-29 12:39 | 48.76607 | 3.83019 | 43121 ft | 385 kts | 326° |
| 2026-04-29 12:40 | 48.81065 | 3.78597 | 43118 ft | 385 kts | 326° |
| 2026-04-29 12:40 | 48.85558 | 3.74146 | 43116 ft | 386 kts | 326° |
| 2026-04-29 12:41 | 48.90053 | 3.69679 | 43121 ft | 386 kts | 325° |
| 2026-04-29 12:41 | 48.94540 | 3.65216 | 43119 ft | 385 kts | 326° |
| 2026-04-29 12:42 | 48.99026 | 3.60741 | 43117 ft | 386 kts | 326° |
| 2026-04-29 12:42 | 49.03515 | 3.56254 | 43127 ft | 386 kts | 326° |
| 2026-04-29 12:43 | 49.08001 | 3.51756 | 43119 ft | 386 kts | 326° |
| 2026-04-29 12:43 | 49.12489 | 3.47255 | 43120 ft | 387 kts | 326° |
| 2026-04-29 12:44 | 49.16994 | 3.42721 | 43119 ft | 388 kts | 325° |
| 2026-04-29 12:44 | 49.21499 | 3.38175 | 43126 ft | 388 kts | 325° |
| 2026-04-29 12:45 | 49.26009 | 3.33621 | 43134 ft | 388 kts | 326° |
| 2026-04-29 12:45 | 49.30519 | 3.29049 | 43133 ft | 389 kts | 326° |
| 2026-04-29 12:46 | 49.35033 | 3.24461 | 43135 ft | 389 kts | 325° |
| 2026-04-29 12:46 | 49.39541 | 3.19876 | 43138 ft | 389 kts | 326° |
| 2026-04-29 12:47 | 49.43287 | 3.16061 | 43138 ft | 389 kts | 326° |
| 2026-04-29 12:47 | 49.48528 | 3.10698 | 43144 ft | 389 kts | 325° |
| 2026-04-29 12:48 | 49.53044 | 3.06076 | 43138 ft | 390 kts | 326° |
| 2026-04-29 12:48 | 49.56828 | 3.02193 | 43137 ft | 391 kts | 326° |
| 2026-04-29 12:49 | 49.61356 | 2.97535 | 43141 ft | 392 kts | 325° |
| 2026-04-29 12:49 | 49.65856 | 2.92894 | 43141 ft | 392 kts | 325° |
| 2026-04-29 12:50 | 49.70383 | 2.88217 | 43152 ft | 392 kts | 325° |
| 2026-04-29 12:50 | 49.74913 | 2.83528 | 43151 ft | 392 kts | 326° |
| 2026-04-29 12:51 | 49.79457 | 2.78807 | 42884 ft | 399 kts | 326° |
| 2026-04-29 12:51 | 49.81789 | 2.76381 | 42351 ft | 409 kts | 325° |
| 2026-04-29 12:51 | 49.84051 | 2.73640 | 41809 ft | 413 kts | 318° |
| 2026-04-29 12:51 | 49.86201 | 2.70770 | 41274 ft | 403 kts | 319° |
| 2026-04-29 12:52 | 49.88317 | 2.68007 | 40758 ft | 393 kts | 319° |
| 2026-04-29 12:52 | 49.90389 | 2.65294 | 40250 ft | 387 kts | 318° |
| 2026-04-29 12:52 | 49.92419 | 2.62600 | 39747 ft | 381 kts | 318° |
| 2026-04-29 12:52 | 49.94422 | 2.59948 | 39241 ft | 377 kts | 317° |
| 2026-04-29 12:53 | 49.96403 | 2.57308 | 38750 ft | 374 kts | 318° |
| 2026-04-29 12:53 | 49.98392 | 2.54689 | 38214 ft | 375 kts | 318° |
| 2026-04-29 12:53 | 50.00373 | 2.52058 | 37703 ft | 374 kts | 318° |
| 2026-04-29 12:53 | 50.02349 | 2.49430 | 37222 ft | 373 kts | 319° |
| 2026-04-29 12:54 | 50.04321 | 2.46805 | 36733 ft | 373 kts | 319° |
| 2026-04-29 12:54 | 50.06294 | 2.44177 | 36241 ft | 374 kts | 319° |
| 2026-04-29 12:54 | 50.08274 | 2.41539 | 35751 ft | 376 kts | 319° |
| 2026-04-29 12:54 | 50.10264 | 2.38880 | 35253 ft | 377 kts | 320° |
| 2026-04-29 12:55 | 50.12253 | 2.36224 | 34748 ft | 377 kts | 320° |
| 2026-04-29 12:55 | 50.14242 | 2.33561 | 34251 ft | 377 kts | 320° |
| 2026-04-29 12:55 | 50.16230 | 2.30900 | 33726 ft | 375 kts | 320° |
| 2026-04-29 12:55 | 50.18201 | 2.28254 | 33235 ft | 373 kts | 320° |
| 2026-04-29 12:56 | 50.20166 | 2.25622 | 32743 ft | 371 kts | 320° |
| 2026-04-29 12:56 | 50.22092 | 2.23036 | 32271 ft | 370 kts | 320° |
| 2026-04-29 12:56 | 50.24059 | 2.20377 | 31772 ft | 368 kts | 320° |
| 2026-04-29 12:56 | 50.25996 | 2.17776 | 31294 ft | 367 kts | 320° |
| 2026-04-29 12:57 | 50.27932 | 2.15174 | 30814 ft | 367 kts | 319° |
| 2026-04-29 12:57 | 50.29860 | 2.12558 | 30339 ft | 367 kts | 319° |
| 2026-04-29 12:57 | 50.31761 | 2.09982 | 29821 ft | 365 kts | 320° |
| 2026-04-29 12:57 | 50.33682 | 2.07402 | 29353 ft | 364 kts | 320° |
| 2026-04-29 12:58 | 50.35602 | 2.04794 | 28867 ft | 366 kts | 320° |
| 2026-04-29 12:58 | 50.37534 | 2.02172 | 28383 ft | 369 kts | 321° |
| 2026-04-29 12:58 | 50.39480 | 1.99531 | 27901 ft | 371 kts | 321° |
| 2026-04-29 12:58 | 50.41436 | 1.96871 | 27425 ft | 375 kts | 320° |
| 2026-04-29 12:59 | 50.43411 | 1.94158 | 26935 ft | 380 kts | 321° |
| 2026-04-29 12:59 | 50.45436 | 1.91450 | 26426 ft | 385 kts | 321° |
| 2026-04-29 12:59 | 50.47461 | 1.88668 | 25915 ft | 389 kts | 321° |
| 2026-04-29 12:59 | 50.49505 | 1.85855 | 25388 ft | 392 kts | 321° |
| 2026-04-29 13:00 | 50.51573 | 1.83033 | 24867 ft | 395 kts | 321° |
| 2026-04-29 13:00 | 50.53654 | 1.80197 | 24344 ft | 398 kts | 321° |
| 2026-04-29 13:00 | 50.55759 | 1.77313 | 23811 ft | 405 kts | 321° |
| 2026-04-29 13:00 | 50.57896 | 1.74369 | 23223 ft | 410 kts | 321° |
| 2026-04-29 13:01 | 50.60053 | 1.71408 | 22675 ft | 413 kts | 321° |
| 2026-04-29 13:01 | 50.62218 | 1.68423 | 22127 ft | 414 kts | 321° |
| 2026-04-29 13:01 | 50.64388 | 1.65442 | 21594 ft | 414 kts | 321° |